Time,TemperatureF,DewpointF,PressureIn,WindDirection,WindDirectionDegrees,WindSpeedMPH,WindSpeedGustMPH,Humidity,HourlyPrecipIn,Conditions,Clouds,dailyrainin,SoftwareType,DateUTC
2013-11-12 00:00:00,46.4,39.9,30.25,North,1,0.0,0.0,78,0.00,CLR,SKC,0.08,WeatherDisplay:10.37,2013-11-11 23:00:00,
2013-11-12 00:10:00,46.2,39.7,30.25,North,1,0.0,0.0,78,0.00,CLR,SKC,0.08,WeatherDisplay:10.37,2013-11-11 23:10:00,
2013-11-12 00:20:00,46.0,39.9,30.26,North,1,0.0,0.0,79,0.00,CLR,SKC,0.08,WeatherDisplay:10.37,2013-11-11 23:20:00,
2013-11-12 00:30:00,46.0,39.9,30.26,North,1,0.0,0.0,79,0.00,CLR,SKC,0.08,WeatherDisplay:10.37,2013-11-11 23:30:00,
2013-11-12 00:40:00,46.0,39.9,30.26,North,1,0.0,0.0,79,0.00,CLR,SKC,0.08,WeatherDisplay:10.37,2013-11-11 23:40:00,
2013-11-12 00:50:00,45.7,39.5,30.26,North,1,0.0,0.0,79,0.00,CLR,SKC,0.08,WeatherDisplay:10.37,2013-11-11 23:50:00,
2013-11-12 01:00:00,45.7,39.5,30.26,North,1,0.0,0.0,79,0.00,CLR,SKC,0.08,WeatherDisplay:10.37,2013-11-12 00:00:00,
2013-11-12 01:10:00,45.7,39.5,30.26,North,1,0.0,0.0,79,0.00,CLR,SKC,0.08,WeatherDisplay:10.37,2013-11-12 00:10:00,
2013-11-12 01:20:00,45.7,39.5,30.26,North,1,0.0,0.0,79,0.00,CLR,SKC,0.08,WeatherDisplay:10.37,2013-11-12 00:20:00,
2013-11-12 01:30:00,45.7,39.5,30.26,North,1,0.0,0.0,79,0.00,CLR,SKC,0.08,WeatherDisplay:10.37,2013-11-12 00:30:00,
2013-11-12 01:40:00,45.5,39.4,30.26,North,1,0.0,0.0,79,0.00,CLR,SKC,0.08,WeatherDisplay:10.37,2013-11-12 00:40:00,
2013-11-12 01:50:00,45.5,39.4,30.26,North,1,0.0,0.0,79,0.00,CLR,SKC,0.08,WeatherDisplay:10.37,2013-11-12 00:50:00,
2013-11-12 02:00:00,45.7,39.5,30.26,North,1,0.0,0.0,79,0.00,CLR,SKC,0.08,WeatherDisplay:10.37,2013-11-12 01:00:00,
2013-11-12 02:10:00,45.5,39.4,30.26,North,1,0.0,0.0,79,0.00,CLR,SKC,0.08,WeatherDisplay:10.37,2013-11-12 01:10:00,
2013-11-12 02:20:00,45.5,39.4,30.27,North,1,0.0,0.0,79,0.00,CLR,SKC,0.08,WeatherDisplay:10.37,2013-11-12 01:20:00,
2013-11-12 02:30:00,45.5,39.4,30.28,North,1,0.0,0.0,79,0.00,CLR,SKC,0.08,WeatherDisplay:10.37,2013-11-12 01:30:00,
2013-11-12 02:40:00,45.1,39.0,30.27,North,1,0.0,0.0,79,0.00,CLR,SKC,0.08,WeatherDisplay:10.37,2013-11-12 01:40:00,
2013-11-12 02:50:00,45.1,39.3,30.28,North,1,0.0,0.0,80,0.00,CLR,SKC,0.08,WeatherDisplay:10.37,2013-11-12 01:50:00,
2013-11-12 03:00:00,45.1,39.3,30.28,North,1,0.0,0.0,80,0.00,CLR,SKC,0.08,WeatherDisplay:10.37,2013-11-12 02:00:00,
2013-11-12 03:10:00,45.1,39.3,30.27,North,1,0.0,0.0,80,0.00,CLR,SKC,0.08,WeatherDisplay:10.37,2013-11-12 02:10:00,
2013-11-12 03:20:00,45.1,39.0,30.27,North,1,0.0,0.0,79,0.00,CLR,SKC,0.08,WeatherDisplay:10.37,2013-11-12 02:20:00,
2013-11-12 03:30:00,45.1,39.3,30.27,North,1,0.0,0.0,80,0.00,CLR,SKC,0.08,WeatherDisplay:10.37,2013-11-12 02:30:00,
2013-11-12 03:40:00,45.1,39.3,30.28,North,1,0.0,0.0,80,0.00,CLR,SKC,0.08,WeatherDisplay:10.37,2013-11-12 02:40:00,
2013-11-12 03:50:00,44.8,39.0,30.28,North,1,0.0,0.0,80,0.00,CLR,SKC,0.08,WeatherDisplay:10.37,2013-11-12 02:50:00,
2013-11-12 04:00:00,45.0,39.2,30.29,North,1,0.0,0.0,80,0.00,CLR,SKC,0.08,WeatherDisplay:10.37,2013-11-12 03:00:00,
2013-11-12 04:10:00,45.1,39.3,30.29,North,1,0.0,0.0,80,0.00,CLR,SKC,0.08,WeatherDisplay:10.37,2013-11-12 03:10:00,
2013-11-12 04:20:00,45.1,39.3,30.29,North,1,0.0,0.0,80,0.00,CLR,SKC,0.08,WeatherDisplay:10.37,2013-11-12 03:20:00,
2013-11-12 04:30:00,45.0,39.2,30.29,North,1,0.0,0.0,80,0.00,CLR,SKC,0.08,WeatherDisplay:10.37,2013-11-12 03:30:00,
2013-11-12 04:40:00,45.0,38.9,30.29,North,1,0.0,0.0,79,0.00,CLR,SKC,0.08,WeatherDisplay:10.37,2013-11-12 03:40:00,
2013-11-12 04:50:00,45.0,38.8,30.29,North,1,0.0,0.0,79,0.00,CLR,SKC,0.08,WeatherDisplay:10.37,2013-11-12 03:50:00,
2013-11-12 05:00:00,45.1,39.0,30.29,North,1,0.0,0.0,79,0.00,CLR,SKC,0.08,WeatherDisplay:10.37,2013-11-12 04:00:00,
2013-11-12 05:10:00,45.0,38.9,30.28,North,1,0.0,0.0,79,0.00,CLR,SKC,0.08,WeatherDisplay:10.37,2013-11-12 04:10:00,
2013-11-12 05:20:00,45.0,38.5,30.28,North,1,0.0,0.0,78,0.00,CLR,SKC,0.08,WeatherDisplay:10.37,2013-11-12 04:20:00,
2013-11-12 05:30:00,45.0,38.5,30.29,North,1,0.0,0.0,78,0.00,CLR,SKC,0.08,WeatherDisplay:10.37,2013-11-12 04:30:00,
2013-11-12 05:40:00,45.0,38.5,30.29,North,1,0.0,0.0,78,0.00,CLR,SKC,0.08,WeatherDisplay:10.37,2013-11-12 04:40:00,
2013-11-12 05:50:00,44.6,38.2,30.30,North,1,0.0,0.0,78,0.00,CLR,SKC,0.08,WeatherDisplay:10.37,2013-11-12 04:50:00,
2013-11-12 06:00:00,44.2,38.1,30.29,North,1,0.0,0.0,79,0.00,CLR,SKC,0.08,WeatherDisplay:10.37,2013-11-12 05:00:00,
2013-11-12 06:10:00,43.7,37.6,30.30,North,1,0.0,0.0,79,0.00,CLR,SKC,0.08,WeatherDisplay:10.37,2013-11-12 05:10:00,
2013-11-12 06:20:00,43.2,37.1,30.29,North,1,0.0,0.0,79,0.00,CLR,SKC,0.08,WeatherDisplay:10.37,2013-11-12 05:20:00,
2013-11-12 06:30:00,42.6,37.2,30.30,North,1,0.0,0.0,81,0.00,CLR,SKC,0.08,WeatherDisplay:10.37,2013-11-12 05:30:00,
2013-11-12 06:40:00,42.4,37.0,30.30,North,1,0.0,0.0,81,0.00,CLR,SKC,0.08,WeatherDisplay:10.37,2013-11-12 05:40:00,
2013-11-12 06:50:00,42.1,36.7,30.30,North,1,0.0,0.0,81,0.00,CLR,SKC,0.08,WeatherDisplay:10.37,2013-11-12 05:50:00,
2013-11-12 07:00:00,41.4,36.3,30.30,North,1,0.0,0.0,82,0.00,RA,SKC,0.00,WeatherDisplay:10.37,2013-11-12 06:00:00,
2013-11-12 07:10:00,41.0,36.2,30.30,North,1,0.0,0.0,83,0.00,CLR,SKC,0.00,WeatherDisplay:10.37,2013-11-12 06:10:00,
2013-11-12 07:20:00,40.8,36.4,30.31,North,1,0.0,0.0,84,0.00,CLR,SKC,0.00,WeatherDisplay:10.37,2013-11-12 06:20:00,
2013-11-12 07:30:00,41.2,36.7,30.31,North,1,0.0,0.0,84,0.00,CLR,SKC,0.00,WeatherDisplay:10.37,2013-11-12 06:30:00,
2013-11-12 07:40:00,41.7,37.2,30.31,North,1,0.0,0.0,84,0.00,CLR,SKC,0.00,WeatherDisplay:10.37,2013-11-12 06:40:00,
2013-11-12 07:50:00,42.6,38.1,30.32,North,1,0.0,0.0,84,0.00,CLR,SKC,0.00,WeatherDisplay:10.37,2013-11-12 06:50:00,
2013-11-12 08:00:00,43.5,38.7,30.31,North,1,0.0,0.0,83,0.00,CLR,SKC,0.00,WeatherDisplay:10.37,2013-11-12 07:00:00,
2013-11-12 08:10:00,44.4,39.0,30.32,North,1,0.0,0.0,81,0.00,CLR,SKC,0.00,WeatherDisplay:10.37,2013-11-12 07:10:00,
2013-11-12 08:20:00,45.1,39.3,30.32,North,1,0.0,0.0,80,0.00,CLR,SKC,0.00,WeatherDisplay:10.37,2013-11-12 07:20:00,
2013-11-12 08:30:00,45.7,39.2,30.32,North,1,0.0,0.0,78,0.00,CLR,SKC,0.00,WeatherDisplay:10.37,2013-11-12 07:30:00,
2013-11-12 08:40:00,46.6,40.1,30.32,North,1,0.0,0.0,78,0.00,CLR,SKC,0.00,WeatherDisplay:10.37,2013-11-12 07:40:00,
2013-11-12 08:50:00,47.8,41.0,30.32,North,1,0.0,0.0,77,0.00,CLR,SKC,0.00,WeatherDisplay:10.37,2013-11-12 07:50:00,
2013-11-12 09:00:00,48.6,40.6,30.32,North,1,0.0,0.0,74,0.00,CLR,SKC,0.00,WeatherDisplay:10.37,2013-11-12 08:00:00,
2013-11-12 09:10:00,49.6,41.0,30.32,North,1,0.0,0.0,72,0.00,CLR,SKC,0.00,WeatherDisplay:10.37,2013-11-12 08:10:00,
2013-11-12 09:20:00,50.2,40.8,30.32,North,1,0.0,0.0,70,0.00,CLR,SKC,0.00,WeatherDisplay:10.37,2013-11-12 08:20:00,
2013-11-12 09:30:00,50.7,40.9,30.31,North,1,0.0,0.0,69,0.00,CLR,SKC,0.00,WeatherDisplay:10.37,2013-11-12 08:30:00,
2013-11-12 09:40:00,51.1,41.3,30.32,North,1,0.0,0.0,69,0.00,CLR,SKC,0.00,WeatherDisplay:10.37,2013-11-12 08:40:00,
2013-11-12 09:50:00,51.6,41.8,30.32,North,1,0.0,0.0,69,0.00,CLR,SKC,0.00,WeatherDisplay:10.37,2013-11-12 08:50:00,
2013-11-12 10:00:00,52.2,41.9,30.32,North,1,0.0,0.0,68,0.00,CLR,SKC,0.00,WeatherDisplay:10.37,2013-11-12 09:00:00,
2013-11-12 10:10:00,52.3,42.1,30.32,North,1,0.0,0.0,68,0.00,CLR,SKC,0.00,WeatherDisplay:10.37,2013-11-12 09:10:00,
2013-11-12 10:20:00,52.7,42.1,30.32,North,1,0.0,0.0,67,0.00,CLR,SKC,0.00,WeatherDisplay:10.37,2013-11-12 09:20:00,
2013-11-12 10:30:00,52.7,41.7,30.32,North,1,0.0,0.0,66,0.00,CLR,SKC,0.00,WeatherDisplay:10.37,2013-11-12 09:30:00,
2013-11-12 10:40:00,52.7,41.7,30.31,North,1,0.0,0.0,66,0.00,CLR,SKC,0.00,WeatherDisplay:10.37,2013-11-12 09:40:00,
2013-11-12 10:50:00,52.9,41.8,30.32,North,1,0.0,0.0,66,0.00,CLR,SKC,0.00,WeatherDisplay:10.37,2013-11-12 09:50:00,
2013-11-12 11:00:00,53.2,42.6,30.31,North,1,0.0,0.0,67,0.00,CLR,SKC,0.00,WeatherDisplay:10.37,2013-11-12 10:00:00,
2013-11-12 11:10:00,53.8,42.3,30.31,North,1,0.0,0.0,65,0.00,CLR,SKC,0.00,WeatherDisplay:10.37,2013-11-12 10:10:00,
2013-11-12 11:20:00,53.8,42.7,30.31,North,1,0.0,0.0,66,0.00,CLR,SKC,0.00,WeatherDisplay:10.37,2013-11-12 10:20:00,
2013-11-12 11:30:00,54.1,43.0,30.31,North,1,0.0,0.0,66,0.00,CLR,SKC,0.00,WeatherDisplay:10.37,2013-11-12 10:30:00,
2013-11-12 11:40:00,54.1,43.0,30.31,North,1,0.0,0.0,66,0.00,CLR,SKC,0.00,WeatherDisplay:10.37,2013-11-12 10:40:00,
2013-11-12 11:50:00,54.1,43.0,30.31,North,1,0.0,0.0,66,0.00,CLR,SKC,0.00,WeatherDisplay:10.37,2013-11-12 10:50:00,
2013-11-12 12:00:00,54.1,43.0,30.31,North,1,0.0,0.0,66,0.00,CLR,SKC,0.00,WeatherDisplay:10.37,2013-11-12 11:00:00,
2013-11-12 12:10:00,54.5,43.8,30.31,North,1,0.0,0.0,67,0.00,CLR,SKC,0.00,WeatherDisplay:10.37,2013-11-12 11:10:00,
2013-11-12 12:20:00,54.7,43.5,30.31,North,1,0.0,0.0,66,0.00,CLR,SKC,0.00,WeatherDisplay:10.37,2013-11-12 11:20:00,
2013-11-12 12:30:00,54.7,43.9,30.30,North,1,0.0,0.0,67,0.00,CLR,SKC,0.00,WeatherDisplay:10.37,2013-11-12 11:30:00,
2013-11-12 12:40:00,54.7,43.9,30.30,North,1,0.0,0.0,67,0.00,CLR,SKC,0.00,WeatherDisplay:10.37,2013-11-12 11:40:00,
2013-11-12 12:50:00,54.3,43.6,30.30,North,1,0.0,0.0,67,0.00,CLR,SKC,0.00,WeatherDisplay:10.37,2013-11-12 11:50:00,
2013-11-12 13:00:00,54.3,44.0,30.30,North,1,0.0,0.0,68,0.00,CLR,SKC,0.00,WeatherDisplay:10.37,2013-11-12 12:00:00,
2013-11-12 13:10:00,54.1,43.8,30.31,North,1,0.0,0.0,68,0.00,CLR,SKC,0.00,WeatherDisplay:10.37,2013-11-12 12:10:00,
2013-11-12 13:20:00,53.8,43.5,30.30,North,1,0.0,0.0,68,0.00,CLR,SKC,0.00,WeatherDisplay:10.37,2013-11-12 12:20:00,
2013-11-12 13:30:00,53.8,43.8,30.30,North,1,0.0,0.0,69,0.00,CLR,SKC,0.00,WeatherDisplay:10.37,2013-11-12 12:30:00,
2013-11-12 13:40:00,53.4,43.8,30.29,North,1,0.0,0.0,70,0.00,CLR,SKC,0.00,WeatherDisplay:10.37,2013-11-12 12:40:00,
2013-11-12 13:50:00,53.2,43.7,30.30,North,1,0.0,0.0,70,0.00,CLR,SKC,0.00,WeatherDisplay:10.37,2013-11-12 12:50:00,
2013-11-12 14:00:00,52.9,43.7,30.29,North,1,0.0,0.0,71,0.00,CLR,SKC,0.00,WeatherDisplay:10.37,2013-11-12 13:00:00,
2013-11-12 14:10:00,52.9,43.7,30.29,North,1,0.0,0.0,71,0.00,CLR,SKC,0.00,WeatherDisplay:10.37,2013-11-12 13:10:00,
2013-11-12 14:20:00,52.7,43.6,30.29,North,1,0.0,0.0,71,0.00,CLR,SKC,0.00,WeatherDisplay:10.37,2013-11-12 13:20:00,
2013-11-12 14:30:00,52.7,43.9,30.29,North,1,0.0,0.0,72,0.00,CLR,SKC,0.00,WeatherDisplay:10.37,2013-11-12 13:30:00,
2013-11-12 14:40:00,52.5,43.8,30.29,North,1,0.0,0.0,72,0.00,CLR,SKC,0.00,WeatherDisplay:10.37,2013-11-12 13:40:00,
2013-11-12 14:50:00,52.3,43.9,30.28,North,1,0.0,0.0,73,0.00,CLR,SKC,0.00,WeatherDisplay:10.37,2013-11-12 13:50:00,
2013-11-12 15:00:00,52.3,43.9,30.29,North,1,0.0,0.0,73,0.00,CLR,SKC,0.00,WeatherDisplay:10.37,2013-11-12 14:00:00,
2013-11-12 15:10:00,52.3,43.9,30.29,North,1,0.0,0.0,73,0.00,CLR,SKC,0.00,WeatherDisplay:10.37,2013-11-12 14:10:00,
2013-11-12 15:20:00,52.2,43.8,30.28,North,1,0.0,0.0,73,0.00,CLR,SKC,0.00,WeatherDisplay:10.37,2013-11-12 14:20:00,
2013-11-12 15:30:00,52.0,43.9,30.28,North,1,0.0,0.0,74,0.00,CLR,SKC,0.00,WeatherDisplay:10.37,2013-11-12 14:30:00,
2013-11-12 15:40:00,51.6,43.6,30.28,North,1,0.0,0.0,74,0.00,CLR,SKC,0.00,WeatherDisplay:10.37,2013-11-12 14:40:00,
2013-11-12 15:50:00,51.6,44.0,30.28,North,1,0.0,0.0,75,0.00,CLR,SKC,0.00,WeatherDisplay:10.37,2013-11-12 14:50:00,
2013-11-12 16:00:00,50.9,43.3,30.27,North,1,0.0,0.0,75,0.00,CLR,SKC,0.00,WeatherDisplay:10.37,2013-11-12 15:00:00,
2013-11-12 16:10:00,50.3,43.0,30.27,North,1,0.0,0.0,76,0.00,CLR,SKC,0.00,WeatherDisplay:10.37,2013-11-12 15:10:00,
2013-11-12 16:20:00,49.3,42.4,30.27,North,1,0.0,0.0,77,0.00,CLR,SKC,0.00,WeatherDisplay:10.37,2013-11-12 15:20:00,
2013-11-12 16:30:00,48.2,41.7,30.28,North,1,0.0,0.0,78,0.00,CLR,SKC,0.00,WeatherDisplay:10.37,2013-11-12 15:30:00,
2013-11-12 16:40:00,47.2,41.3,30.28,North,1,0.0,0.0,80,0.00,CLR,SKC,0.00,WeatherDisplay:10.37,2013-11-12 15:40:00,
2013-11-12 16:50:00,46.6,41.1,30.28,North,1,0.0,0.0,81,0.00,CLR,SKC,0.00,WeatherDisplay:10.37,2013-11-12 15:50:00,
2013-11-12 17:00:00,46.0,40.9,30.28,North,1,0.0,0.0,82,0.00,CLR,SKC,0.00,WeatherDisplay:10.37,2013-11-12 16:00:00,
2013-11-12 17:10:00,45.5,40.6,30.28,North,1,0.0,0.0,83,0.00,CLR,SKC,0.00,WeatherDisplay:10.37,2013-11-12 16:10:00,
2013-11-12 17:20:00,45.3,40.8,30.28,North,1,0.0,0.0,84,0.00,CLR,SKC,0.00,WeatherDisplay:10.37,2013-11-12 16:20:00,
2013-11-12 17:30:00,45.5,41.3,30.28,North,1,0.0,0.0,85,0.00,CLR,SKC,0.00,WeatherDisplay:10.37,2013-11-12 16:30:00,
2013-11-12 17:40:00,45.6,41.4,30.28,North,1,0.0,0.0,85,0.00,CLR,SKC,0.00,WeatherDisplay:10.37,2013-11-12 16:40:00,
2013-11-12 17:50:00,45.7,41.7,30.28,North,1,0.0,0.0,86,0.00,CLR,SKC,0.00,WeatherDisplay:10.37,2013-11-12 16:50:00,
2013-11-12 18:00:00,46.0,42.1,30.28,North,1,0.0,0.0,86,0.00,CLR,SKC,0.00,WeatherDisplay:10.37,2013-11-12 17:00:00,
2013-11-12 18:10:00,46.2,42.3,30.28,North,1,0.0,0.0,86,0.00,CLR,SKC,0.00,WeatherDisplay:10.37,2013-11-12 17:10:00,
2013-11-12 18:20:00,46.6,42.6,30.28,North,1,0.0,0.0,86,0.00,CLR,SKC,0.00,WeatherDisplay:10.37,2013-11-12 17:20:00,
2013-11-12 18:30:00,46.9,43.0,30.28,North,1,0.0,0.0,86,0.00,CLR,SKC,0.00,WeatherDisplay:10.37,2013-11-12 17:30:00,
2013-11-12 18:40:00,47.1,42.8,30.28,North,1,0.0,0.0,85,0.00,CLR,SKC,0.00,WeatherDisplay:10.37,2013-11-12 17:40:00,
2013-11-12 18:50:00,47.1,42.8,30.28,North,1,0.0,0.0,85,0.00,CLR,SKC,0.00,WeatherDisplay:10.37,2013-11-12 17:50:00,
2013-11-12 19:00:00,47.5,43.2,30.27,North,1,0.0,0.0,85,0.00,CLR,SKC,0.00,WeatherDisplay:10.37,2013-11-12 18:00:00,
2013-11-12 19:10:00,47.5,43.2,30.27,North,1,0.0,0.0,85,0.00,CLR,SKC,0.00,WeatherDisplay:10.37,2013-11-12 18:10:00,
2013-11-12 19:20:00,47.8,43.5,30.26,North,1,0.0,0.0,85,0.00,CLR,SKC,0.00,WeatherDisplay:10.37,2013-11-12 18:20:00,
2013-11-12 19:30:00,48.0,43.4,30.27,North,1,0.0,0.0,84,0.00,CLR,SKC,0.00,WeatherDisplay:10.37,2013-11-12 18:30:00,
2013-11-12 19:40:00,47.6,43.0,30.28,North,1,0.0,0.0,84,0.00,CLR,SKC,0.00,WeatherDisplay:10.37,2013-11-12 18:40:00,
2013-11-12 19:50:00,46.6,42.0,30.28,North,1,0.0,0.0,84,0.00,CLR,SKC,0.00,WeatherDisplay:10.37,2013-11-12 18:50:00,
2013-11-12 20:00:00,45.5,40.9,30.28,North,1,0.0,0.0,84,0.00,CLR,SKC,0.00,WeatherDisplay:10.37,2013-11-12 19:00:00,
2013-11-12 20:10:00,45.0,40.8,30.28,North,1,0.0,0.0,85,0.00,CLR,SKC,0.00,WeatherDisplay:10.37,2013-11-12 19:10:00,
2013-11-12 20:20:00,44.4,40.5,30.28,North,1,0.0,0.0,86,0.00,CLR,SKC,0.00,WeatherDisplay:10.37,2013-11-12 19:20:00,
2013-11-12 20:30:00,44.1,40.1,30.28,North,1,0.0,0.0,86,0.00,CLR,SKC,0.00,WeatherDisplay:10.37,2013-11-12 19:30:00,
2013-11-12 20:40:00,43.7,40.1,30.28,North,1,0.0,0.0,87,0.00,CLR,SKC,0.00,WeatherDisplay:10.37,2013-11-12 19:40:00,
2013-11-12 20:50:00,43.3,39.7,30.28,North,1,0.0,0.0,87,0.00,CLR,SKC,0.00,WeatherDisplay:10.37,2013-11-12 19:50:00,
2013-11-12 21:00:00,43.2,39.6,30.28,North,1,0.0,0.0,87,0.00,CLR,SKC,0.00,WeatherDisplay:10.37,2013-11-12 20:00:00,
2013-11-12 21:10:00,43.2,39.6,30.28,North,1,0.0,0.0,87,0.00,CLR,SKC,0.00,WeatherDisplay:10.37,2013-11-12 20:10:00,
2013-11-12 21:20:00,43.5,40.2,30.27,North,1,0.0,0.0,88,0.00,CLR,SKC,0.00,WeatherDisplay:10.37,2013-11-12 20:20:00,
2013-11-12 21:30:00,43.8,40.5,30.28,North,1,0.0,0.0,88,0.00,CLR,SKC,0.00,WeatherDisplay:10.37,2013-11-12 20:30:00,
2013-11-12 21:40:00,44.2,41.1,30.28,North,1,0.0,0.0,89,0.00,CLR,SKC,0.00,WeatherDisplay:10.37,2013-11-12 20:40:00,
2013-11-12 21:50:00,44.4,41.4,30.27,North,1,0.0,0.0,89,0.00,CLR,SKC,0.00,WeatherDisplay:10.37,2013-11-12 20:50:00,
2013-11-12 22:00:00,44.8,41.7,30.27,North,1,0.0,0.0,89,0.00,CLR,SKC,0.00,WeatherDisplay:10.37,2013-11-12 21:00:00,
2013-11-12 22:10:00,45.1,42.1,30.27,North,1,0.0,0.0,89,0.00,CLR,SKC,0.00,WeatherDisplay:10.37,2013-11-12 21:10:00,
2013-11-12 22:20:00,45.3,42.3,30.27,North,1,0.0,0.0,89,0.00,CLR,SKC,0.00,WeatherDisplay:10.37,2013-11-12 21:20:00,
2013-11-12 22:30:00,45.7,42.6,30.27,North,1,0.0,0.0,89,0.00,CLR,SKC,0.00,WeatherDisplay:10.37,2013-11-12 21:30:00,
2013-11-12 22:40:00,46.0,43.0,30.27,North,1,0.0,0.0,89,0.00,CLR,SKC,0.00,WeatherDisplay:10.37,2013-11-12 21:40:00,
2013-11-12 22:50:00,46.2,43.2,30.27,North,1,0.0,0.0,89,0.00,CLR,SKC,0.00,WeatherDisplay:10.37,2013-11-12 21:50:00,
2013-11-12 23:00:00,46.6,43.5,30.26,North,1,0.0,0.0,89,0.00,CLR,SKC,0.00,WeatherDisplay:10.37,2013-11-12 22:00:00,
2013-11-12 23:10:00,46.8,43.7,30.26,North,1,0.0,0.0,89,0.00,CLR,SKC,0.00,WeatherDisplay:10.37,2013-11-12 22:10:00,
2013-11-12 23:20:00,47.0,43.9,30.26,North,1,0.0,0.0,89,0.00,CLR,SKC,0.00,WeatherDisplay:10.37,2013-11-12 22:20:00,
2013-11-12 23:30:00,47.1,44.0,30.26,North,1,0.0,0.0,89,0.00,CLR,SKC,0.00,WeatherDisplay:10.37,2013-11-12 22:30:00,
2013-11-12 23:40:00,47.2,43.8,30.26,North,1,0.0,0.0,88,0.00,CLR,SKC,0.00,WeatherDisplay:10.37,2013-11-12 22:40:00,
2013-11-12 23:50:00,47.3,43.6,30.26,North,1,0.0,0.0,87,0.00,CLR,SKC,0.00,WeatherDisplay:10.37,2013-11-12 22:50:00,